createdAt,value
2018-07-13T00:01:31.258Z,69.00
2018-07-13T00:03:59.551Z,68.20
2018-07-13T00:06:27.784Z,68.00
2018-07-13T00:08:56.039Z,67.80
2018-07-13T00:11:24.325Z,67.90
2018-07-13T00:14:06.272Z,68.00
2018-07-13T00:16:34.599Z,68.10
2018-07-13T00:19:02.839Z,68.20
2018-07-13T00:21:31.080Z,68.30
2018-07-13T00:28:55.368Z,69.20
2018-07-13T00:31:23.970Z,69.60
2018-07-13T00:33:52.274Z,69.80
2018-07-13T00:38:48.967Z,70.00
2018-07-13T00:41:17.290Z,70.20
2018-07-13T00:43:45.575Z,70.40
2018-07-13T00:46:13.863Z,70.40
2018-07-13T00:48:42.112Z,70.50
2018-07-13T00:51:10.428Z,70.60
2018-07-13T00:53:38.717Z,70.60
2018-07-13T00:56:07.162Z,70.60
2018-07-13T00:58:35.403Z,70.60
2018-07-13T01:03:31.742Z,70.50
2018-07-13T01:06:00.064Z,70.60
2018-07-13T01:08:28.355Z,70.40
2018-07-13T01:10:56.584Z,70.20
2018-07-13T01:13:24.824Z,70.10
2018-07-13T01:15:53.138Z,70.00
2018-07-13T01:18:21.421Z,70.00
2018-07-13T01:20:49.660Z,69.90
2018-07-13T01:23:18.400Z,69.80
2018-07-13T01:25:46.758Z,69.80
2018-07-13T01:28:15.087Z,69.90
2018-07-13T01:30:43.348Z,70.20
2018-07-13T01:33:11.663Z,70.30
2018-07-13T01:35:39.922Z,70.40
2018-07-13T01:38:08.232Z,70.60
2018-07-13T01:40:36.582Z,70.60
2018-07-13T01:43:04.792Z,70.60
2018-07-13T01:45:33.645Z,70.90
2018-07-13T01:48:01.928Z,70.90
2018-07-13T01:50:30.218Z,70.90
2018-07-13T01:52:58.567Z,70.90
2018-07-13T01:55:26.861Z,71.10
2018-07-13T01:57:55.107Z,71.10
2018-07-13T02:00:24.104Z,71.10
2018-07-13T02:02:52.311Z,71.30
2018-07-13T02:05:20.591Z,71.10
2018-07-13T02:07:48.891Z,71.10
2018-07-13T02:10:17.119Z,71.10
2018-07-13T02:12:45.447Z,71.30
2018-07-13T02:15:13.683Z,71.80
2018-07-13T02:17:42.018Z,72.20
2018-07-13T02:20:10.327Z,72.20
2018-07-13T02:22:38.590Z,72.10
2018-07-13T02:25:06.876Z,72.10
2018-07-13T02:27:35.135Z,72.30
2018-07-13T02:30:03.489Z,71.60
2018-07-13T02:32:32.609Z,71.60
2018-07-13T02:35:00.850Z,71.70
2018-07-13T02:37:29.287Z,71.70
2018-07-13T02:39:57.604Z,72.10
2018-07-13T02:42:25.949Z,72.20
2018-07-13T02:47:22.259Z,72.50
2018-07-13T02:49:50.557Z,72.80
2018-07-13T02:52:18.843Z,72.90
2018-07-13T02:54:47.180Z,72.90
2018-07-13T02:57:15.526Z,72.90
2018-07-13T02:59:43.830Z,73.10
2018-07-13T03:02:12.086Z,73.10
2018-07-13T03:04:40.324Z,73.10
2018-07-13T03:07:08.759Z,73.10
2018-07-13T03:09:36.967Z,73.10
2018-07-13T03:12:05.307Z,72.80
2018-07-13T03:14:33.579Z,72.00
2018-07-13T03:17:01.909Z,71.70
2018-07-13T03:19:30.120Z,72.10
2018-07-13T03:21:58.751Z,72.30
2018-07-13T03:24:27.526Z,72.30
2018-07-13T03:26:55.787Z,72.40
2018-07-13T03:29:24.142Z,72.50
2018-07-13T03:31:52.495Z,72.50
2018-07-13T03:34:20.769Z,72.90
2018-07-13T03:36:49.054Z,72.90
2018-07-13T03:41:45.391Z,73.00
2018-07-13T03:44:13.763Z,73.10
2018-07-13T03:46:42.029Z,73.20
2018-07-13T03:49:10.297Z,73.10
2018-07-13T03:51:38.584Z,73.00
2018-07-13T03:54:06.855Z,73.10
2018-07-13T03:56:35.179Z,73.20
2018-07-13T03:59:03.516Z,73.10
2018-07-13T04:01:32.365Z,73.00
2018-07-13T04:06:29.234Z,72.90
2018-07-13T04:11:25.578Z,72.90
2018-07-13T04:13:53.876Z,72.70
2018-07-13T04:16:22.158Z,72.60
2018-07-13T04:18:50.446Z,72.70
2018-07-13T04:23:46.680Z,72.40
2018-07-13T04:26:14.932Z,72.20
2018-07-13T04:28:43.371Z,72.10
2018-07-13T04:31:11.594Z,72.00
2018-07-13T04:33:39.918Z,71.80
2018-07-13T04:36:08.189Z,71.70
2018-07-13T04:38:36.443Z,71.70
2018-07-13T04:41:04.746Z,71.50
2018-07-13T04:43:33.071Z,71.40
2018-07-13T04:48:24.176Z,71.40
2018-07-13T04:50:52.608Z,71.40
2018-07-13T04:53:22.021Z,71.30
2018-07-13T04:55:50.343Z,71.10
2018-07-13T04:58:18.654Z,71.40
2018-07-13T05:00:47.016Z,71.50
2018-07-13T05:03:15.290Z,71.60
2018-07-13T05:05:43.727Z,71.30
2018-07-13T05:08:12.033Z,71.10
2018-07-13T05:10:40.344Z,71.30
2018-07-13T05:13:08.667Z,71.10
2018-07-13T05:15:37.571Z,71.30
2018-07-13T05:18:05.895Z,71.40
2018-07-13T05:20:34.242Z,71.10
2018-07-13T05:23:02.520Z,71.10
2018-07-13T05:25:30.870Z,70.90
2018-07-13T05:27:59.185Z,71.40
2018-07-13T05:30:27.481Z,71.60
2018-07-13T05:32:55.728Z,71.50
2018-07-13T05:35:23.963Z,71.40
2018-07-13T05:40:20.346Z,71.00
2018-07-13T05:42:48.709Z,71.20
2018-07-13T05:45:17.023Z,71.00
2018-07-13T05:47:45.396Z,70.70
2018-07-13T05:50:13.722Z,70.60
2018-07-13T05:52:42.117Z,70.30
2018-07-13T05:55:10.430Z,70.20
2018-07-13T05:57:38.729Z,70.10
2018-07-13T06:00:08.973Z,70.20
2018-07-13T06:02:37.355Z,70.10
2018-07-13T06:05:05.732Z,70.10
2018-07-13T06:07:34.045Z,69.70
2018-07-13T06:10:02.312Z,69.10
2018-07-13T06:12:30.608Z,69.00
2018-07-13T06:14:58.949Z,69.00
2018-07-13T06:19:55.256Z,68.60
2018-07-13T06:22:24.318Z,68.30
2018-07-13T06:24:52.613Z,68.10
2018-07-13T06:27:20.976Z,68.10
2018-07-13T06:29:49.223Z,68.10
2018-07-13T06:32:17.560Z,67.80
2018-07-13T06:34:45.868Z,67.80
2018-07-13T06:37:14.255Z,67.60
2018-07-13T06:39:42.640Z,67.30
2018-07-13T06:42:11.006Z,67.00
2018-07-13T06:44:39.351Z,66.60
2018-07-13T06:47:07.619Z,66.50
2018-07-13T06:49:35.978Z,66.10
2018-07-13T06:52:04.292Z,66.00
2018-07-13T06:54:32.571Z,65.60
2018-07-13T06:57:00.983Z,64.30
2018-07-13T06:59:29.262Z,64.00
2018-07-13T07:01:57.580Z,63.60
2018-07-13T07:04:31.644Z,63.70
2018-07-13T07:07:01.853Z,63.60
2018-07-13T07:09:30.170Z,63.50
2018-07-13T07:13:09.263Z,63.50
2018-07-13T07:15:37.937Z,62.70
2018-07-13T07:18:06.598Z,62.00
2018-07-13T07:20:34.954Z,62.00
2018-07-13T07:23:03.196Z,61.30
2018-07-13T07:25:32.630Z,60.20
2018-07-13T07:28:01.027Z,61.00
2018-07-13T07:30:29.431Z,60.80
2018-07-13T07:32:57.728Z,59.50
2018-07-13T07:35:26.043Z,58.70
2018-07-13T07:37:54.337Z,58.40
2018-07-13T07:40:23.203Z,58.10
2018-07-13T07:42:51.575Z,57.60
2018-07-13T07:45:19.890Z,57.10
2018-07-13T07:47:48.178Z,57.10
2018-07-13T07:50:16.571Z,57.50
2018-07-13T07:52:44.848Z,57.70
2018-07-13T07:55:13.178Z,57.30
2018-07-13T07:57:41.683Z,57.50
2018-07-13T08:00:09.937Z,57.30
2018-07-13T08:02:38.238Z,56.40
2018-07-13T08:05:06.642Z,56.20
2018-07-13T08:07:35.036Z,55.60
2018-07-13T08:10:03.300Z,56.10
2018-07-13T08:12:31.691Z,56.00
2018-07-13T08:14:59.912Z,55.80
2018-07-13T08:17:28.241Z,55.20
2018-07-13T08:19:56.812Z,54.80
2018-07-13T08:22:42.748Z,54.50
2018-07-13T08:25:12.880Z,54.60
2018-07-13T08:27:45.556Z,55.20
2018-07-13T08:30:24.721Z,54.00
2018-07-13T08:32:53.268Z,53.30
2018-07-13T08:35:21.552Z,53.30
2018-07-13T08:37:49.928Z,53.80
2018-07-13T08:40:18.184Z,54.20
2018-07-13T08:42:47.012Z,54.40
2018-07-13T08:47:44.751Z,54.20
2018-07-13T08:50:13.227Z,54.20
2018-07-13T08:52:41.641Z,54.20
2018-07-13T08:55:15.168Z,53.70
2018-07-13T08:57:46.190Z,53.30
2018-07-13T09:00:14.556Z,53.40
2018-07-13T09:02:42.915Z,51.80
2018-07-13T09:05:11.178Z,51.60
2018-07-13T09:07:39.571Z,51.10
2018-07-13T09:10:09.137Z,51.40
2018-07-13T09:12:37.859Z,51.40
2018-07-13T09:15:07.235Z,51.30
2018-07-13T09:17:35.480Z,50.80
2018-07-13T09:20:04.325Z,50.50
2018-07-13T09:22:32.593Z,49.70
2018-07-13T09:25:00.923Z,50.00
2018-07-13T09:27:29.252Z,49.50
2018-07-13T09:29:57.583Z,49.20
2018-07-13T09:32:25.862Z,48.80
2018-07-13T09:34:54.281Z,48.40
2018-07-13T09:37:22.594Z,48.20
2018-07-13T09:39:50.894Z,47.70
2018-07-13T09:42:19.136Z,46.50
2018-07-13T09:44:47.361Z,46.00
2018-07-13T09:47:15.639Z,45.20
2018-07-13T09:49:44.034Z,44.60
2018-07-13T09:52:12.310Z,43.10
2018-07-13T09:54:40.795Z,43.00
2018-07-13T09:57:09.195Z,42.80
2018-07-13T09:59:37.521Z,42.90
2018-07-13T10:02:06.073Z,42.30
2018-07-13T10:04:34.388Z,42.10
2018-07-13T10:07:02.717Z,41.80
2018-07-13T10:09:30.972Z,41.70
2018-07-13T10:12:00.182Z,42.00
2018-07-13T10:14:28.597Z,42.30
2018-07-13T10:16:56.827Z,43.20
2018-07-13T10:19:25.125Z,43.30
2018-07-13T10:21:53.507Z,44.10
2018-07-13T10:24:21.811Z,44.60
2018-07-13T10:26:50.960Z,45.30
2018-07-13T10:29:23.913Z,45.60
2018-07-13T10:31:52.712Z,45.30
2018-07-13T10:34:21.348Z,45.70
2018-07-13T10:36:54.641Z,45.60
2018-07-13T10:39:23.090Z,45.70
2018-07-13T10:41:51.873Z,45.60
2018-07-13T10:44:21.143Z,45.50
2018-07-13T10:46:49.381Z,46.10
2018-07-13T10:49:17.800Z,45.70
2018-07-13T10:54:14.176Z,45.10
2018-07-13T10:56:42.490Z,45.40
2018-07-13T10:59:10.820Z,45.30
2018-07-13T11:01:39.345Z,45.60
2018-07-13T11:04:08.016Z,45.00
2018-07-13T11:06:36.213Z,45.20
2018-07-13T11:09:05.739Z,43.40
2018-07-13T11:11:34.135Z,43.20
2018-07-13T11:14:02.556Z,43.30
2018-07-13T11:16:30.727Z,43.20
2018-07-13T11:18:59.148Z,43.70
2018-07-13T11:21:27.559Z,43.80
2018-07-13T11:23:55.838Z,44.40
2018-07-13T11:26:24.655Z,44.20
2018-07-13T11:28:52.985Z,45.10
2018-07-13T11:31:21.400Z,45.30
2018-07-13T11:33:49.701Z,45.60
2018-07-13T11:36:17.984Z,46.80
2018-07-13T11:41:14.329Z,46.90
2018-07-13T11:43:42.619Z,45.40
2018-07-13T11:46:10.941Z,45.60
2018-07-13T11:48:39.200Z,47.10
2018-07-13T11:51:07.619Z,46.00
2018-07-13T11:53:35.959Z,46.80
2018-07-13T11:58:32.362Z,46.50
2018-07-13T12:01:00.681Z,44.90
2018-07-13T12:03:29.004Z,44.80
2018-07-13T12:05:58.071Z,45.10
2018-07-13T12:08:26.393Z,45.70
2018-07-13T12:10:54.774Z,45.40
2018-07-13T12:13:23.371Z,45.80
2018-07-13T12:15:51.777Z,44.30
2018-07-13T12:18:20.323Z,44.10
2018-07-13T12:20:48.608Z,44.30
2018-07-13T12:23:16.986Z,43.10
2018-07-13T12:25:45.250Z,42.60
2018-07-13T12:28:13.712Z,44.00
2018-07-13T12:30:42.016Z,44.50
2018-07-13T12:35:38.260Z,44.10
2018-07-13T12:38:06.575Z,44.20
2018-07-13T12:40:34.920Z,42.90
2018-07-13T12:43:03.151Z,43.30
2018-07-13T12:45:31.419Z,43.80
2018-07-13T12:47:59.752Z,43.30
2018-07-13T12:50:28.009Z,42.60
2018-07-13T12:52:56.426Z,43.60
2018-07-13T12:57:52.696Z,43.10
2018-07-13T13:00:21.524Z,42.70
2018-07-13T13:02:49.821Z,42.20
2018-07-13T13:05:18.124Z,42.60
2018-07-13T13:07:46.558Z,43.10
2018-07-13T13:10:14.889Z,43.30
2018-07-13T13:12:43.200Z,42.70
2018-07-13T13:15:11.465Z,41.90
2018-07-13T13:17:39.789Z,41.70
2018-07-13T13:20:08.123Z,41.50
2018-07-13T13:22:36.407Z,41.10
2018-07-13T13:25:04.687Z,41.70
2018-07-13T13:30:01.016Z,41.80
2018-07-13T13:32:29.295Z,42.00
2018-07-13T13:34:57.516Z,42.30
2018-07-13T13:37:26.100Z,40.00
2018-07-13T13:39:54.445Z,40.40
2018-07-13T13:42:22.948Z,40.40
2018-07-13T13:44:51.965Z,40.30
2018-07-13T13:47:20.631Z,40.60
2018-07-13T13:49:48.993Z,40.40
2018-07-13T13:52:17.326Z,39.60
2018-07-13T13:54:45.778Z,40.20
2018-07-13T13:57:14.142Z,38.10
2018-07-13T13:59:42.446Z,39.20
2018-07-13T14:02:10.795Z,39.30
2018-07-13T14:04:39.031Z,39.10
2018-07-13T14:07:07.398Z,39.40
2018-07-13T14:09:35.805Z,40.60
2018-07-13T14:12:04.162Z,40.20
2018-07-13T14:14:32.510Z,40.00
2018-07-13T14:17:00.697Z,40.60
2018-07-13T14:19:29.523Z,40.90
2018-07-13T14:21:57.791Z,41.00
2018-07-13T14:24:26.029Z,40.50
2018-07-13T14:26:54.252Z,40.00
2018-07-13T14:29:22.516Z,40.20
2018-07-13T14:31:52.181Z,40.20
2018-07-13T14:34:20.743Z,41.40
2018-07-13T14:36:49.106Z,42.00
2018-07-13T14:39:17.501Z,42.10
2018-07-13T14:41:46.040Z,42.50
2018-07-13T14:44:14.427Z,42.20
2018-07-13T14:46:42.775Z,42.30
2018-07-13T14:49:11.056Z,42.10
2018-07-13T14:51:39.441Z,41.70
2018-07-13T14:54:08.308Z,42.30
2018-07-13T14:56:36.763Z,41.80
2018-07-13T14:59:05.157Z,42.10
2018-07-13T15:01:33.605Z,41.40
2018-07-13T15:04:02.107Z,41.90
2018-07-13T15:06:30.536Z,41.60
2018-07-13T15:08:58.888Z,41.70
2018-07-13T15:11:27.211Z,41.70
2018-07-13T15:13:55.572Z,42.20
2018-07-13T15:16:24.262Z,42.40
2018-07-13T15:18:53.338Z,43.10
2018-07-13T15:21:22.321Z,43.20
2018-07-13T15:23:50.675Z,43.20
2018-07-13T15:28:47.189Z,43.40
2018-07-13T15:31:15.861Z,43.30
2018-07-13T15:33:44.598Z,43.10
2018-07-13T15:36:13.545Z,42.90
2018-07-13T15:38:42.180Z,43.20
2018-07-13T15:41:10.586Z,42.80
2018-07-13T15:43:39.186Z,42.80
2018-07-13T15:46:07.772Z,43.10
2018-07-13T15:48:36.180Z,42.60
2018-07-13T15:51:04.676Z,42.30
2018-07-13T15:53:33.249Z,42.20
2018-07-13T15:56:02.426Z,41.90
2018-07-13T15:58:31.092Z,42.60
2018-07-13T16:00:59.436Z,42.00
2018-07-13T16:03:27.995Z,42.00
2018-07-13T16:05:56.434Z,42.20
2018-07-13T16:08:24.968Z,41.90
2018-07-13T16:10:54.527Z,43.00
2018-07-13T16:13:23.097Z,42.60
2018-07-13T16:15:51.537Z,42.40
2018-07-13T16:18:20.033Z,43.00
2018-07-13T16:20:48.607Z,42.60
2018-07-13T16:23:17.083Z,42.20
2018-07-13T16:25:45.448Z,41.90
2018-07-13T16:28:13.890Z,41.80
2018-07-13T16:30:42.545Z,41.90
2018-07-13T16:33:10.987Z,41.70
2018-07-13T16:35:39.516Z,42.10
2018-07-13T16:38:08.099Z,42.70
2018-07-13T16:40:36.662Z,42.60
2018-07-13T16:43:05.666Z,42.20
2018-07-13T16:45:34.336Z,42.30
2018-07-13T16:48:02.970Z,42.30
2018-07-13T16:50:31.555Z,42.10
2018-07-13T16:53:00.220Z,42.00
2018-07-13T16:55:28.853Z,42.80
2018-07-13T16:57:57.379Z,43.10
2018-07-13T17:00:25.880Z,43.20
2018-07-13T17:02:54.513Z,43.10
2018-07-13T17:05:22.962Z,43.20
2018-07-13T17:07:51.873Z,43.40
2018-07-13T17:10:20.276Z,43.60
2018-07-13T17:12:48.767Z,43.60
2018-07-13T17:15:17.261Z,43.60
2018-07-13T17:17:45.633Z,43.90
2018-07-13T17:20:14.193Z,44.10
2018-07-13T17:22:42.681Z,44.40
2018-07-13T17:25:11.245Z,44.50
2018-07-13T17:27:39.746Z,44.10
2018-07-13T17:30:09.584Z,43.90
2018-07-13T17:32:38.101Z,44.50
2018-07-13T17:35:06.572Z,44.60
2018-07-13T17:37:35.797Z,44.40
2018-07-13T17:40:04.363Z,44.20
2018-07-13T17:42:33.150Z,43.90
2018-07-13T17:45:01.686Z,44.20
2018-07-13T17:47:30.355Z,44.10
2018-07-13T17:49:59.596Z,43.60
2018-07-13T17:52:28.167Z,43.80
2018-07-13T17:54:56.735Z,44.00
2018-07-13T17:57:25.342Z,43.90
2018-07-13T17:59:53.768Z,43.90
2018-07-13T18:02:22.486Z,43.70
2018-07-13T18:04:50.863Z,44.00
2018-07-13T18:07:19.343Z,44.30
2018-07-13T18:09:47.829Z,44.40
2018-07-13T18:12:16.255Z,44.10
2018-07-13T18:14:44.762Z,44.10
2018-07-13T18:17:13.133Z,44.40
2018-07-13T18:19:41.583Z,44.50
2018-07-13T18:22:09.933Z,44.40
2018-07-13T18:24:39.590Z,44.10
2018-07-13T18:27:08.795Z,44.30
2018-07-13T18:29:37.182Z,44.40
2018-07-13T18:32:05.656Z,44.40
2018-07-13T18:34:34.212Z,44.70
2018-07-13T18:37:02.946Z,44.70
2018-07-13T18:39:33.952Z,44.70
2018-07-13T18:42:02.496Z,44.80
2018-07-13T18:44:30.881Z,45.00
2018-07-13T18:46:59.301Z,45.20
2018-07-13T18:49:27.671Z,45.30
2018-07-13T18:51:56.146Z,45.40
2018-07-13T18:54:24.564Z,45.50
2018-07-13T18:56:53.076Z,45.60
2018-07-13T18:59:21.488Z,46.20
2018-07-13T19:01:49.850Z,45.90
2018-07-13T19:04:18.148Z,45.50
2018-07-13T19:06:46.509Z,45.90
2018-07-13T19:09:15.474Z,46.20
2018-07-13T19:11:43.798Z,46.50
2018-07-13T19:14:12.111Z,46.90
2018-07-13T19:16:40.453Z,46.60
2018-07-13T19:19:08.877Z,46.70
2018-07-13T19:21:38.094Z,46.60
2018-07-13T19:24:06.378Z,46.60
2018-07-13T19:26:34.784Z,47.00
2018-07-13T19:29:03.207Z,47.00
2018-07-13T19:31:32.644Z,47.20
2018-07-13T19:34:00.965Z,47.60
2018-07-13T19:36:29.531Z,47.50
2018-07-13T19:38:57.822Z,47.50
2018-07-13T19:41:28.023Z,47.80
2018-07-13T19:43:56.311Z,47.70
2018-07-13T19:46:24.746Z,47.90
2018-07-13T19:48:53.132Z,48.00
2018-07-13T19:51:21.809Z,48.20
2018-07-13T19:53:50.270Z,48.80
2018-07-13T19:56:19.036Z,49.20
2018-07-13T19:58:47.587Z,49.00
2018-07-13T20:01:15.912Z,48.90
2018-07-13T20:03:44.409Z,49.30
2018-07-13T20:06:13.233Z,49.60
2018-07-13T20:08:41.544Z,50.00
2018-07-13T20:11:10.000Z,50.20
2018-07-13T20:13:38.335Z,50.30
2018-07-13T20:16:06.628Z,50.30
2018-07-13T20:18:35.027Z,50.60
2018-07-13T20:21:03.506Z,50.50
2018-07-13T20:23:31.835Z,51.00
2018-07-13T20:26:00.265Z,51.00
2018-07-13T20:28:28.625Z,51.10
2018-07-13T20:30:57.084Z,51.40
2018-07-13T20:33:25.567Z,51.40
2018-07-13T20:35:53.864Z,51.20
2018-07-13T20:38:22.230Z,52.10
2018-07-13T20:40:50.588Z,52.20
2018-07-13T20:43:19.027Z,52.50
2018-07-13T20:45:47.444Z,52.80
2018-07-13T20:48:15.894Z,52.90
2018-07-13T20:50:44.231Z,53.20
2018-07-13T20:53:13.330Z,52.90
2018-07-13T20:55:41.740Z,52.90
2018-07-13T20:58:10.169Z,53.10
2018-07-13T21:00:38.535Z,53.60
2018-07-13T21:03:06.920Z,53.10
2018-07-13T21:05:35.903Z,53.10
2018-07-13T21:08:04.240Z,53.10
2018-07-13T21:10:32.566Z,53.00
2018-07-13T21:13:00.819Z,53.20
2018-07-13T21:17:57.498Z,53.80
2018-07-13T21:20:25.838Z,54.10
2018-07-13T21:22:54.171Z,54.40
2018-07-13T21:25:22.548Z,54.40
2018-07-13T21:27:50.985Z,55.10
2018-07-13T21:30:19.314Z,55.10
2018-07-13T21:32:48.356Z,54.90
2018-07-13T21:35:16.640Z,55.10
2018-07-13T21:37:45.008Z,55.30
2018-07-13T21:40:13.484Z,55.10
2018-07-13T21:42:41.801Z,55.10
2018-07-13T21:45:10.232Z,55.30
2018-07-13T21:47:38.987Z,55.30
2018-07-13T21:50:07.316Z,55.70
2018-07-13T21:52:35.669Z,55.30
2018-07-13T21:57:32.108Z,55.60
2018-07-13T22:00:00.408Z,55.50
2018-07-13T22:02:28.837Z,55.90
2018-07-13T22:04:57.079Z,55.80
2018-07-13T22:07:26.224Z,55.80
2018-07-13T22:09:55.528Z,56.00
2018-07-13T22:12:24.550Z,56.10
2018-07-13T22:14:52.893Z,56.30
2018-07-13T22:17:21.376Z,56.30
2018-07-13T22:19:49.806Z,56.40
2018-07-13T22:22:18.350Z,56.50
2018-07-13T22:24:46.883Z,56.70
2018-07-13T22:27:15.592Z,56.70
2018-07-13T22:29:44.155Z,56.90
2018-07-13T22:32:12.601Z,57.20
2018-07-13T22:34:41.440Z,57.40
2018-07-13T22:37:10.123Z,57.20
2018-07-13T22:39:39.907Z,57.20
2018-07-13T22:42:08.363Z,57.40
2018-07-13T22:44:36.857Z,57.30
2018-07-13T22:47:05.856Z,57.40
2018-07-13T22:49:34.472Z,57.50
2018-07-13T22:52:03.273Z,57.40
2018-07-13T22:54:31.696Z,57.40
2018-07-13T22:57:00.164Z,57.60
2018-07-13T22:59:28.692Z,57.40
2018-07-13T23:01:57.448Z,57.40
2018-07-13T23:06:54.197Z,57.50
2018-07-13T23:09:22.740Z,57.60
2018-07-13T23:11:51.295Z,57.60
2018-07-13T23:14:19.922Z,57.70
2018-07-13T23:16:48.994Z,57.80
2018-07-13T23:21:45.547Z,58.00
2018-07-13T23:24:14.205Z,57.80
2018-07-13T23:26:43.068Z,58.10
2018-07-13T23:29:11.454Z,58.20
2018-07-13T23:31:39.960Z,58.10
2018-07-13T23:34:08.411Z,58.20
2018-07-13T23:36:36.952Z,58.50
2018-07-13T23:39:06.345Z,58.70
2018-07-13T23:41:34.618Z,58.40
2018-07-13T23:44:02.950Z,58.30
2018-07-13T23:46:31.382Z,58.30
2018-07-13T23:48:59.729Z,57.90
2018-07-13T23:51:27.981Z,57.50
2018-07-13T23:53:56.345Z,57.30
2018-07-13T23:56:24.894Z,57.50
2018-07-13T23:58:53.213Z,57.90
